Time;durP1;ratioP1;P1;durP2;ratioP2;P2;SDS_P1;SDS_P2;PMS_P1;PMS_P2;Temp;Humidity;BMP_temperature;BMP_pressure;BME280_temperature;BME280_humidity;BME280_pressure;Samples;Min_cycle;Max_cycle;Signal;HPM_P1;HPM_P2
2021/10/04 00:01:27;;;;;;;0.98;0.85;;;15.20;99.90;;;;;;2010315;70;21059;-78
2021/10/04 00:03:53;;;;;;;1.27;0.70;;;15.20;99.90;;;;;;2006629;70;21129;-78
2021/10/04 00:06:19;;;;;;;1.00;0.88;;;15.30;99.90;;;;;;2013672;70;21405;-77
2021/10/04 00:08:45;;;;;;;0.60;0.55;;;15.30;99.90;;;;;;2010332;71;21460;-78
2021/10/04 00:11:11;;;;;;;0.65;0.65;;;15.10;99.90;;;;;;2010220;71;21439;-78
2021/10/04 00:13:37;;;;;;;1.55;0.80;;;15.10;99.90;;;;;;2002384;70;21516;-79
2021/10/04 00:16:03;;;;;;;0.75;0.75;;;15.20;99.90;;;;;;2007544;70;21456;-78
2021/10/04 00:18:29;;;;;;;0.78;0.78;;;15.10;99.90;;;;;;1960673;72;21566;-78
2021/10/04 00:20:55;;;;;;;0.88;0.88;;;15.10;99.90;;;;;;2006479;70;21097;-78
2021/10/04 00:23:22;;;;;;;2.22;0.62;;;15.10;99.90;;;;;;1961796;72;21041;-78
2021/10/04 00:25:48;;;;;;;0.93;0.70;;;15.10;99.90;;;;;;2003082;70;21068;-78
2021/10/04 00:28:14;;;;;;;0.70;0.70;;;15.00;99.90;;;;;;1998109;70;21039;-78
2021/10/04 00:30:40;;;;;;;1.02;0.62;;;15.00;99.90;;;;;;2013602;70;21047;-78
2021/10/04 00:33:06;;;;;;;1.05;0.70;;;15.00;99.90;;;;;;2002990;70;21146;-78
2021/10/04 00:35:32;;;;;;;1.80;0.60;;;14.90;99.90;;;;;;2005938;70;21059;-78
2021/10/04 00:37:58;;;;;;;0.60;0.60;;;14.90;99.90;;;;;;2020955;71;21061;-78
2021/10/04 00:40:25;;;;;;;1.02;0.70;;;15.00;99.90;;;;;;2013228;70;21051;-78
2021/10/04 00:42:51;;;;;;;2.85;0.78;;;14.90;99.90;;;;;;2010205;70;21132;-78
2021/10/04 00:45:17;;;;;;;1.25;0.80;;;15.00;99.90;;;;;;2005987;70;21024;-78
2021/10/04 00:47:43;;;;;;;1.32;0.85;;;14.90;99.90;;;;;;2006531;70;21042;-77
2021/10/04 00:50:09;;;;;;;0.85;0.60;;;14.90;99.90;;;;;;2010780;70;21051;-77
2021/10/04 00:52:35;;;;;;;1.02;0.68;;;14.90;99.90;;;;;;2009601;70;21042;-77
2021/10/04 00:55:01;;;;;;;0.60;0.60;;;14.90;99.90;;;;;;1967465;72;21053;-77
2021/10/04 00:57:27;;;;;;;0.80;0.80;;;14.80;99.90;;;;;;2005813;70;21094;-77
2021/10/04 00:59:54;;;;;;;0.93;0.70;;;14.80;99.90;;;;;;2011829;70;21050;-77
2021/10/04 01:02:20;;;;;;;0.68;0.68;;;14.70;99.90;;;;;;2011771;71;21081;-78
2021/10/04 01:04:46;;;;;;;0.78;0.78;;;14.70;99.90;;;;;;2006875;70;21052;-78
2021/10/04 01:07:12;;;;;;;1.95;0.80;;;14.70;99.90;;;;;;2006925;70;21028;-78
2021/10/04 01:09:38;;;;;;;1.35;0.50;;;14.60;99.90;;;;;;2010413;71;21043;-78
2021/10/04 01:12:04;;;;;;;1.92;0.80;;;14.60;99.90;;;;;;2009450;70;21094;-78
2021/10/04 01:14:30;;;;;;;0.98;0.62;;;14.60;99.90;;;;;;2008516;71;21043;-78
2021/10/04 01:16:57;;;;;;;1.55;0.60;;;14.60;99.90;;;;;;2002922;70;21110;-78
2021/10/04 01:19:23;;;;;;;0.68;0.68;;;14.70;99.90;;;;;;2017064;70;21519;-78
2021/10/04 01:21:49;;;;;;;1.98;0.70;;;14.70;99.90;;;;;;2010234;71;21047;-78
2021/10/04 01:24:15;;;;;;;0.40;0.40;;;14.60;99.90;;;;;;2014541;70;21084;-78
2021/10/04 01:26:41;;;;;;;1.72;0.80;;;14.70;99.90;;;;;;2018981;71;21051;-78
2021/10/04 01:29:07;;;;;;;2.98;0.60;;;14.70;99.90;;;;;;2009755;70;21025;-78
2021/10/04 01:31:33;;;;;;;0.65;0.60;;;14.70;99.90;;;;;;2006417;70;21135;-78
2021/10/04 01:34:00;;;;;;;0.68;0.60;;;14.70;99.90;;;;;;2010288;71;21043;-78
2021/10/04 01:36:26;;;;;;;0.55;0.55;;;14.70;99.90;;;;;;2013593;70;21121;-78
2021/10/04 01:38:52;;;;;;;0.68;0.53;;;14.70;99.90;;;;;;2010194;70;21024;-78
2021/10/04 01:41:18;;;;;;;0.50;0.40;;;14.50;99.90;;;;;;2010540;70;21047;-78
2021/10/04 01:43:44;;;;;;;1.17;0.60;;;14.50;99.90;;;;;;2007913;70;21199;-78
2021/10/04 01:46:10;;;;;;;0.70;0.70;;;14.60;99.90;;;;;;2006912;70;21112;-78
2021/10/04 01:48:36;;;;;;;2.05;0.50;;;14.50;99.90;;;;;;1964997;72;21025;-78
2021/10/04 01:51:02;;;;;;;0.60;0.60;;;14.50;99.90;;;;;;2001597;70;21194;-78
2021/10/04 01:53:28;;;;;;;1.27;0.50;;;14.50;99.90;;;;;;2012583;70;21084;-78
2021/10/04 01:55:55;;;;;;;0.50;0.50;;;14.50;99.90;;;;;;2009094;70;21197;-78
2021/10/04 01:58:21;;;;;;;0.70;0.60;;;14.60;99.90;;;;;;1962345;72;21043;-78
2021/10/04 02:00:47;;;;;;;0.82;0.60;;;14.50;99.90;;;;;;2013194;70;21055;-78
2021/10/04 02:03:13;;;;;;;0.72;0.70;;;14.50;99.90;;;;;;2009860;70;21071;-78
2021/10/04 02:05:39;;;;;;;0.80;0.80;;;14.50;99.90;;;;;;2007627;70;21049;-78
2021/10/04 02:08:06;;;;;;;0.72;0.60;;;14.40;99.90;;;;;;1965364;72;21115;-78
2021/10/04 02:10:32;;;;;;;0.78;0.78;;;14.30;99.90;;;;;;2013612;70;21165;-78
2021/10/04 02:12:58;;;;;;;0.62;0.60;;;14.30;99.90;;;;;;2010328;70;21055;-78
2021/10/04 02:15:24;;;;;;;2.75;0.70;;;14.30;99.90;;;;;;2010150;71;21118;-78
2021/10/04 02:17:50;;;;;;;0.55;0.50;;;14.30;99.90;;;;;;2005260;70;21122;-78
2021/10/04 02:20:16;;;;;;;0.33;0.33;;;14.20;99.90;;;;;;1962841;72;21117;-77
2021/10/04 02:22:43;;;;;;;0.45;0.45;;;14.20;99.90;;;;;;2004348;70;21059;-78
2021/10/04 02:25:09;;;;;;;0.40;0.40;;;14.10;99.90;;;;;;1967754;72;21533;-77
2021/10/04 02:27:35;;;;;;;0.65;0.40;;;14.10;99.90;;;;;;1937252;73;21649;-78
2021/10/04 02:30:01;;;;;;;0.75;0.53;;;14.00;99.90;;;;;;2006659;70;21544;-78
2021/10/04 02:32:27;;;;;;;0.80;0.57;;;14.00;99.90;;;;;;2012501;70;21518;-78
2021/10/04 02:34:53;;;;;;;1.17;0.60;;;14.00;99.90;;;;;;1965032;72;21043;-78
2021/10/04 02:37:19;;;;;;;1.25;0.70;;;14.00;99.90;;;;;;2004553;70;21048;-78
2021/10/04 02:39:46;;;;;;;0.60;0.60;;;14.00;99.90;;;;;;1956405;72;21020;-78
2021/10/04 02:42:12;;;;;;;1.12;0.57;;;13.90;99.90;;;;;;1927984;73;21066;-78
2021/10/04 02:44:38;;;;;;;2.20;0.55;;;13.90;99.90;;;;;;2003594;70;21116;-77
2021/10/04 02:47:04;;;;;;;0.57;0.47;;;13.80;99.90;;;;;;2007386;70;21039;-78
2021/10/04 02:49:30;;;;;;;2.55;0.80;;;13.80;99.90;;;;;;2011705;70;21011;-77
2021/10/04 02:51:56;;;;;;;1.32;0.60;;;13.70;99.90;;;;;;2021465;70;21076;-77
2021/10/04 02:54:22;;;;;;;0.85;0.60;;;13.70;99.90;;;;;;2014297;70;21130;-77
2021/10/04 02:56:48;;;;;;;0.50;0.50;;;13.70;99.90;;;;;;2010220;70;21044;-78
2021/10/04 02:59:15;;;;;;;0.57;0.57;;;13.80;99.90;;;;;;1995833;70;21015;-78
2021/10/04 03:01:41;;;;;;;1.80;0.65;;;13.80;99.90;;;;;;2010201;71;21021;-77
2021/10/04 03:04:08;;;;;;;1.40;0.60;;;13.80;99.90;;;;;;2008590;70;21462;-78
2021/10/04 03:06:34;;;;;;;0.50;0.50;;;13.90;99.90;;;;;;2008806;70;21169;-77
2021/10/04 03:09:00;;;;;;;0.55;0.47;;;13.80;99.90;;;;;;1969194;72;21059;-75
2021/10/04 03:11:26;;;;;;;0.72;0.50;;;13.80;99.90;;;;;;1926495;73;21058;-76
2021/10/04 03:13:52;;;;;;;1.70;0.57;;;13.70;99.90;;;;;;2010104;70;21161;-77
2021/10/04 03:16:20;;;;;;;1.02;0.80;;;13.60;99.90;;;;;;2016862;70;21197;-76
2021/10/04 03:18:46;;;;;;;0.50;0.50;;;13.50;99.90;;;;;;2004729;70;21089;-75
2021/10/04 03:21:12;;;;;;;1.12;0.72;;;13.60;99.90;;;;;;2006044;70;21043;-76
2021/10/04 03:23:38;;;;;;;0.75;0.70;;;13.70;99.90;;;;;;2009082;70;21136;-75
2021/10/04 03:26:05;;;;;;;0.50;0.50;;;13.60;99.90;;;;;;2008711;70;21108;-76
2021/10/04 03:28:31;;;;;;;3.10;0.70;;;13.70;99.90;;;;;;1965886;72;21029;-78
2021/10/04 03:30:57;;;;;;;0.72;0.70;;;13.70;99.90;;;;;;2010216;71;21040;-77
2021/10/04 03:33:23;;;;;;;0.70;0.50;;;13.70;99.90;;;;;;2010161;71;21125;-78
2021/10/04 03:35:49;;;;;;;1.32;0.60;;;13.60;99.90;;;;;;2000256;70;21050;-78
2021/10/04 03:38:15;;;;;;;0.47;0.47;;;13.60;99.90;;;;;;2011906;70;21021;-79
2021/10/04 03:40:41;;;;;;;1.70;0.60;;;13.60;99.90;;;;;;2005371;70;21064;-78
2021/10/04 03:43:07;;;;;;;0.82;0.65;;;13.60;99.90;;;;;;2016924;70;21052;-79
2021/10/04 03:45:34;;;;;;;1.27;0.60;;;13.50;99.90;;;;;;2010254;70;21440;-79
2021/10/04 03:48:00;;;;;;;1.92;0.75;;;13.40;99.90;;;;;;2009565;70;21474;-78
2021/10/04 03:50:26;;;;;;;1.90;0.72;;;13.30;99.90;;;;;;2010055;71;21028;-78
2021/10/04 03:52:52;;;;;;;1.52;0.72;;;13.30;99.90;;;;;;2010246;71;21051;-79
2021/10/04 03:55:18;;;;;;;0.75;0.75;;;13.20;99.90;;;;;;2009652;70;21048;-79
2021/10/04 03:57:44;;;;;;;0.70;0.60;;;13.30;99.90;;;;;;2010285;71;21033;-77
2021/10/04 04:00:11;;;;;;;0.57;0.57;;;13.30;99.90;;;;;;2006804;70;21137;-77
2021/10/04 04:02:37;;;;;;;0.50;0.50;;;13.30;99.90;;;;;;2011429;70;21051;-77
2021/10/04 04:05:03;;;;;;;1.98;0.72;;;13.30;99.90;;;;;;1998212;70;21046;-76
2021/10/04 04:07:29;;;;;;;3.33;0.75;;;13.40;99.90;;;;;;2012471;70;21044;-77
2021/10/04 04:09:55;;;;;;;0.50;0.50;;;13.40;99.90;;;;;;2008966;70;21087;-76
2021/10/04 04:12:21;;;;;;;1.00;0.80;;;13.40;99.90;;;;;;1968654;72;21130;-76
2021/10/04 04:14:47;;;;;;;3.27;0.60;;;13.30;99.90;;;;;;2012000;70;21047;-77
2021/10/04 04:17:14;;;;;;;1.32;0.85;;;13.30;99.90;;;;;;1966723;72;21055;-76
2021/10/04 04:19:40;;;;;;;0.95;0.60;;;13.30;99.90;;;;;;1923971;73;21117;-77
2021/10/04 04:22:06;;;;;;;3.55;0.85;;;13.30;99.90;;;;;;2006351;70;21221;-77
2021/10/04 04:24:32;;;;;;;1.87;0.70;;;13.20;99.90;;;;;;2006995;70;21116;-78
2021/10/04 04:26:59;;;;;;;1.25;0.62;;;13.10;99.90;;;;;;2015029;70;21047;-77
2021/10/04 04:29:26;;;;;;;1.12;0.93;;;13.10;99.90;;;;;;1968801;72;21106;-78
2021/10/04 04:31:52;;;;;;;2.40;0.80;;;13.20;99.90;;;;;;1941834;73;21059;-78
2021/10/04 04:34:18;;;;;;;1.30;0.72;;;13.10;99.90;;;;;;1940886;73;21068;-78
2021/10/04 04:36:44;;;;;;;0.50;0.50;;;13.20;99.90;;;;;;2003187;70;21120;-78
2021/10/04 04:39:10;;;;;;;0.50;0.50;;;13.20;99.90;;;;;;1966799;72;21054;-77
2021/10/04 04:41:36;;;;;;;0.72;0.60;;;13.20;99.90;;;;;;2001856;70;21055;-77
2021/10/04 04:44:02;;;;;;;0.80;0.80;;;13.10;99.90;;;;;;2010305;71;21045;-77
2021/10/04 04:46:28;;;;;;;0.62;0.62;;;13.00;99.90;;;;;;2010328;71;21048;-77
2021/10/04 04:48:55;;;;;;;2.05;0.60;;;12.90;99.90;;;;;;2010285;70;21056;-77
2021/10/04 04:51:21;;;;;;;0.40;0.40;;;12.90;99.90;;;;;;2002582;70;21529;-77
2021/10/04 04:53:47;;;;;;;0.40;0.40;;;13.00;99.90;;;;;;1968846;73;21487;-77
2021/10/04 04:56:15;;;;;;;0.53;0.45;;;13.00;99.90;;;;;;2019973;70;21520;-76
2021/10/04 04:58:41;;;;;;;0.90;0.90;;;13.00;99.90;;;;;;2010742;71;21032;-78
2021/10/04 05:01:07;;;;;;;1.12;0.75;;;12.90;99.90;;;;;;2013251;70;21058;-77
2021/10/04 05:03:33;;;;;;;0.57;0.57;;;12.90;99.90;;;;;;2014746;70;21161;-77
2021/10/04 05:05:59;;;;;;;0.60;0.60;;;12.90;99.90;;;;;;2008365;70;21112;-77
2021/10/04 05:08:25;;;;;;;0.90;0.60;;;13.00;99.90;;;;;;2016963;70;21348;-77
2021/10/04 05:10:51;;;;;;;0.70;0.70;;;13.00;99.90;;;;;;2020003;70;21096;-78
2021/10/04 05:13:17;;;;;;;0.50;0.50;;;13.10;99.90;;;;;;1968851;72;21436;-78
2021/10/04 05:15:44;;;;;;;0.60;0.60;;;13.10;99.90;;;;;;2006889;70;21428;-76
2021/10/04 05:18:10;;;;;;;0.60;0.60;;;13.10;99.90;;;;;;2006910;70;21452;-78
2021/10/04 05:20:36;;;;;;;1.05;0.90;;;13.10;99.90;;;;;;2013682;70;21595;-78
2021/10/04 05:23:02;;;;;;;0.42;0.42;;;13.10;99.90;;;;;;2013460;70;21448;-78
2021/10/04 05:25:28;;;;;;;0.93;0.70;;;13.10;99.90;;;;;;2002887;70;21044;-78
2021/10/04 05:27:54;;;;;;;1.25;0.72;;;13.10;99.90;;;;;;2007324;70;21101;-77
2021/10/04 05:30:21;;;;;;;0.85;0.80;;;13.10;99.90;;;;;;1966168;72;21114;-77
2021/10/04 05:32:47;;;;;;;0.82;0.75;;;13.00;99.90;;;;;;2002706;70;21141;-78
2021/10/04 05:35:13;;;;;;;19.62;0.90;;;13.00;99.90;;;;;;2002177;70;21024;-78
2021/10/04 05:37:39;;;;;;;0.78;0.70;;;13.00;99.90;;;;;;2005685;70;21052;-75
2021/10/04 05:40:06;;;;;;;0.75;0.68;;;13.10;99.90;;;;;;2006506;70;21123;-74
2021/10/04 05:42:32;;;;;;;1.30;0.80;;;13.10;99.90;;;;;;1967907;72;21145;-75
2021/10/04 05:44:58;;;;;;;0.80;0.80;;;13.00;99.90;;;;;;2001323;70;21042;-74
2021/10/04 05:47:24;;;;;;;0.80;0.80;;;13.00;99.90;;;;;;1965027;72;21130;-73
2021/10/04 05:49:52;;;;;;;1.27;0.78;;;12.90;99.90;;;;;;2008292;70;21038;-73
2021/10/04 05:52:18;;;;;;;2.45;1.00;;;12.90;99.90;;;;;;2025079;71;21030;-74
2021/10/04 05:54:44;;;;;;;1.95;0.72;;;12.90;99.90;;;;;;2006897;70;21060;-76
2021/10/04 05:57:11;;;;;;;1.10;0.57;;;12.90;99.90;;;;;;2010082;70;21040;-75
2021/10/04 05:59:37;;;;;;;0.80;0.80;;;12.90;99.90;;;;;;2011119;70;21060;-76
2021/10/04 06:02:03;;;;;;;0.68;0.60;;;12.90;99.90;;;;;;1970766;72;21126;-75
2021/10/04 06:04:29;;;;;;;2.30;0.90;;;12.90;99.90;;;;;;2003166;70;21122;-76
2021/10/04 06:06:55;;;;;;;1.20;0.70;;;12.90;99.90;;;;;;2008642;70;21129;-75
2021/10/04 06:09:21;;;;;;;1.75;1.00;;;12.90;99.90;;;;;;1967541;73;21044;-75
2021/10/04 06:11:47;;;;;;;1.60;0.90;;;12.90;99.90;;;;;;2006744;70;21039;-75
2021/10/04 06:14:13;;;;;;;2.02;1.20;;;12.90;99.90;;;;;;2006942;70;21063;-74
2021/10/04 06:16:40;;;;;;;2.77;1.00;;;12.80;99.90;;;;;;2014541;70;21072;-74
2021/10/04 06:19:06;;;;;;;1.30;1.20;;;12.80;99.90;;;;;;2013560;70;21158;-74
2021/10/04 06:21:32;;;;;;;1.27;1.07;;;12.80;99.90;;;;;;1961548;72;21621;-73
2021/10/04 06:23:58;;;;;;;2.75;1.07;;;12.90;99.90;;;;;;2010046;70;21448;-74
2021/10/04 06:26:24;;;;;;;1.00;1.00;;;13.00;99.90;;;;;;2013661;70;21463;-71
2021/10/04 06:28:50;;;;;;;4.42;1.45;;;13.00;99.90;;;;;;2010197;70;21521;-73
2021/10/04 06:31:16;;;;;;;2.02;1.05;;;13.10;99.90;;;;;;2010145;70;21595;-71
2021/10/04 06:33:42;;;;;;;3.05;1.20;;;13.10;99.90;;;;;;2010250;70;21444;-72
2021/10/04 06:36:09;;;;;;;2.35;1.30;;;13.10;99.90;;;;;;2015685;70;21049;-72
2021/10/04 06:38:35;;;;;;;2.58;1.10;;;13.10;99.90;;;;;;2019514;70;21072;-72
2021/10/04 06:41:01;;;;;;;0.80;0.75;;;13.10;99.90;;;;;;1965021;72;21052;-72
2021/10/04 06:43:27;;;;;;;3.85;0.80;;;13.10;99.90;;;;;;2004497;70;21132;-71
2021/10/04 06:45:53;;;;;;;1.57;0.98;;;13.20;99.90;;;;;;1968557;72;21032;-75
2021/10/04 06:48:19;;;;;;;0.75;0.75;;;13.20;99.90;;;;;;2007047;70;21230;-76
2021/10/04 06:50:45;;;;;;;2.15;0.80;;;13.20;99.90;;;;;;1972549;72;21051;-76
2021/10/04 06:53:11;;;;;;;2.40;1.17;;;13.10;99.90;;;;;;1932578;74;21024;-77
2021/10/04 06:55:38;;;;;;;1.65;0.90;;;12.90;99.90;;;;;;2009779;70;21125;-77
2021/10/04 06:58:04;;;;;;;0.80;0.80;;;12.90;99.90;;;;;;1961314;72;21024;-76
2021/10/04 07:00:30;;;;;;;0.80;0.80;;;13.00;99.90;;;;;;2008249;70;21058;-77
2021/10/04 07:02:57;;;;;;;0.72;0.72;;;13.20;99.90;;;;;;2011255;70;21527;-76
2021/10/04 07:05:23;;;;;;;1.25;0.90;;;13.30;99.90;;;;;;2012851;70;21127;-76
2021/10/04 07:07:51;;;;;;;1.12;0.93;;;13.40;99.90;;;;;;2009925;70;21052;-77
2021/10/04 07:10:17;;;;;;;1.05;1.00;;;13.50;99.90;;;;;;2006669;70;21062;-77
2021/10/04 07:12:44;;;;;;;1.37;0.93;;;13.50;99.90;;;;;;1967834;72;21050;-77
2021/10/04 07:15:11;;;;;;;1.00;1.00;;;13.50;99.90;;;;;;2010072;71;21032;-77
2021/10/04 07:17:37;;;;;;;1.45;1.10;;;13.40;99.90;;;;;;1978826;70;21423;-78
2021/10/04 07:20:04;;;;;;;1.17;1.07;;;13.30;99.90;;;;;;1959289;72;21058;-76
2021/10/04 07:22:30;;;;;;;1.52;1.20;;;13.30;99.90;;;;;;2001105;70;21033;-74
2021/10/04 07:24:56;;;;;;;1.30;1.02;;;13.50;99.90;;;;;;2006512;70;21175;-74
2021/10/04 07:27:22;;;;;;;1.05;0.95;;;13.40;99.90;;;;;;2005632;70;21044;-74
2021/10/04 07:29:48;;;;;;;0.80;0.80;;;13.40;99.90;;;;;;1963272;72;21013;-74
2021/10/04 07:32:14;;;;;;;6.97;1.17;;;13.50;99.90;;;;;;2007168;70;21050;-74
2021/10/04 07:34:40;;;;;;;3.42;1.12;;;13.50;99.90;;;;;;2008502;70;21052;-74
2021/10/04 07:37:06;;;;;;;2.00;1.40;;;13.50;99.90;;;;;;2009977;70;21173;-79
2021/10/04 07:39:33;;;;;;;1.52;1.15;;;13.50;99.90;;;;;;2010132;71;21029;-73
2021/10/04 07:41:59;;;;;;;2.12;1.10;;;13.60;99.90;;;;;;2010162;71;21047;-73
2021/10/04 07:44:25;;;;;;;3.65;1.40;;;13.70;99.90;;;;;;2006694;70;21242;-74
2021/10/04 07:46:51;;;;;;;2.70;1.30;;;13.70;99.90;;;;;;2002635;70;21541;-74
2021/10/04 07:49:17;;;;;;;4.10;1.37;;;13.60;99.90;;;;;;2005796;70;21024;-74
2021/10/04 07:51:44;;;;;;;5.37;1.17;;;13.60;99.90;;;;;;1966487;73;21565;-75
2021/10/04 07:54:10;;;;;;;1.30;1.20;;;13.50;99.90;;;;;;2010233;70;21130;-73
2021/10/04 07:56:39;;;;;;;2.67;1.27;;;13.50;99.90;;;;;;2010358;70;21173;-72
2021/10/04 07:59:04;;;;;;;3.47;1.60;;;13.50;99.90;;;;;;2000710;70;21052;-73
2021/10/04 08:01:32;;;;;;;2.83;1.50;;;13.40;99.90;;;;;;1965766;72;21060;-73
2021/10/04 08:03:58;;;;;;;3.40;2.22;;;13.50;99.90;;;;;;2008407;70;21478;-73
2021/10/04 08:06:26;;;;;;;10.63;2.33;;;13.40;99.90;;;;;;2007222;70;21490;-73
2021/10/04 08:08:52;;;;;;;2.50;1.82;;;13.30;99.90;;;;;;2021269;70;21084;-73
2021/10/04 08:11:18;;;;;;;5.50;1.85;;;13.30;99.90;;;;;;2014867;70;21165;-72
2021/10/04 08:13:45;;;;;;;3.77;2.10;;;13.20;99.90;;;;;;2011390;70;21185;-73
2021/10/04 08:16:11;;;;;;;3.08;1.70;;;13.30;99.90;;;;;;2009782;70;21050;-73
2021/10/04 08:18:38;;;;;;;4.87;2.08;;;13.30;99.90;;;;;;1967944;73;21017;-73
2021/10/04 08:21:04;;;;;;;6.28;2.30;;;13.40;99.90;;;;;;2006931;70;21038;-73
2021/10/04 08:23:30;;;;;;;3.77;1.87;;;13.50;99.90;;;;;;1966291;72;21068;-73
2021/10/04 08:25:56;;;;;;;5.17;2.00;;;13.60;99.90;;;;;;2013231;70;21601;-72
2021/10/04 08:28:22;;;;;;;5.42;2.15;;;13.60;99.90;;;;;;2008263;70;21109;-74
2021/10/04 08:30:48;;;;;;;1.52;1.42;;;13.60;99.90;;;;;;2010302;70;21033;-72
2021/10/04 08:33:14;;;;;;;4.03;1.55;;;13.50;99.90;;;;;;2006301;70;21128;-72
2021/10/04 08:35:41;;;;;;;2.08;1.70;;;13.50;99.90;;;;;;2010316;71;21039;-72
2021/10/04 08:38:07;;;;;;;1.95;1.07;;;13.50;99.90;;;;;;2010354;70;21162;-73
2021/10/04 08:40:33;;;;;;;0.90;0.80;;;13.60;99.90;;;;;;2006931;70;21020;-78
2021/10/04 08:42:59;;;;;;;1.20;0.82;;;13.70;99.90;;;;;;2006558;70;21052;-75
2021/10/04 08:45:25;;;;;;;0.85;0.80;;;13.60;99.90;;;;;;2006864;70;21129;-75
2021/10/04 08:47:52;;;;;;;0.78;0.62;;;13.50;99.90;;;;;;2011549;70;21047;-78
2021/10/04 08:50:18;;;;;;;0.85;0.68;;;13.50;99.90;;;;;;2006824;70;21129;-73
2021/10/04 08:52:44;;;;;;;0.85;0.78;;;13.50;99.90;;;;;;2010306;71;21040;-73
2021/10/04 08:55:10;;;;;;;2.35;0.90;;;13.40;99.90;;;;;;2002881;70;21057;-73
2021/10/04 08:57:37;;;;;;;0.98;0.78;;;13.40;99.90;;;;;;2009423;70;21176;-74
2021/10/04 09:00:03;;;;;;;2.75;0.82;;;13.40;99.90;;;;;;1970284;73;21110;-75
2021/10/04 09:02:30;;;;;;;0.80;0.80;;;13.40;99.90;;;;;;2013351;70;21049;-74
2021/10/04 09:04:56;;;;;;;1.52;0.82;;;13.40;99.90;;;;;;1963154;72;21060;-74
2021/10/04 09:07:22;;;;;;;2.08;0.70;;;13.40;99.90;;;;;;1991351;70;21140;-75
2021/10/04 09:09:49;;;;;;;1.47;0.80;;;13.40;99.90;;;;;;1969482;72;21054;-75
2021/10/04 09:12:21;;;;;;;1.37;0.72;;;13.50;99.90;;;;;;1977571;72;21126;-76
2021/10/04 09:14:42;;;;;;;1.85;1.02;;;13.60;99.90;;;;;;1969896;72;21080;-75
2021/10/04 09:17:11;;;;;;;0.93;0.75;;;13.70;99.90;;;;;;1972857;72;21128;-75
2021/10/04 09:19:36;;;;;;;1.45;0.70;;;13.70;99.90;;;;;;1987727;72;21118;-75
2021/10/04 09:22:02;;;;;;;5.03;0.70;;;13.70;99.90;;;;;;1974305;73;21117;-76
2021/10/04 09:24:29;;;;;;;1.57;0.78;;;13.70;99.90;;;;;;1974344;72;21470;-74
2021/10/04 09:26:55;;;;;;;1.52;0.80;;;13.80;99.90;;;;;;1974587;73;21436;-73
2021/10/04 09:29:21;;;;;;;1.35;0.95;;;14.00;99.90;;;;;;1967003;72;21474;-74
2021/10/04 09:31:47;;;;;;;2.90;0.65;;;14.00;99.90;;;;;;1972933;72;21054;-74
2021/10/04 09:34:13;;;;;;;2.55;0.85;;;13.90;99.90;;;;;;1982620;72;21031;-74
2021/10/04 09:36:39;;;;;;;5.40;0.80;;;14.00;99.90;;;;;;1969097;72;21031;-75
2021/10/04 09:39:05;;;;;;;2.47;0.90;;;14.10;99.90;;;;;;1968167;72;21145;-74
2021/10/04 09:41:32;;;;;;;0.93;0.70;;;14.20;99.90;;;;;;1970346;72;21145;-75
2021/10/04 09:43:58;;;;;;;1.07;1.07;;;14.20;99.90;;;;;;1971625;72;21059;-75
2021/10/04 09:46:24;;;;;;;1.47;1.00;;;14.30;99.90;;;;;;1972820;72;21486;-74
2021/10/04 09:48:50;;;;;;;0.98;0.98;;;14.30;99.90;;;;;;1975198;72;21050;-73
2021/10/04 09:51:17;;;;;;;0.80;0.80;;;14.40;99.90;;;;;;1971904;72;21066;-75
2021/10/04 09:53:43;;;;;;;0.75;0.75;;;14.40;99.90;;;;;;1976462;72;21148;-74
2021/10/04 09:56:09;;;;;;;1.45;0.90;;;14.50;99.90;;;;;;1972159;72;21131;-75
2021/10/04 09:58:35;;;;;;;0.70;0.70;;;14.50;99.90;;;;;;1972941;72;21255;-74
2021/10/04 10:01:01;;;;;;;2.83;1.55;;;14.40;99.90;;;;;;1978834;72;21148;-75
2021/10/04 10:03:28;;;;;;;1.45;0.90;;;14.30;99.90;;;;;;1975631;72;21184;-74
2021/10/04 10:05:54;;;;;;;7.85;1.37;;;14.40;99.90;;;;;;1980026;72;21056;-75
2021/10/04 10:08:21;;;;;;;0.60;0.60;;;14.50;99.90;;;;;;1971355;72;21035;-74
2021/10/04 10:10:48;;;;;;;4.10;3.70;;;14.50;99.90;;;;;;1981674;72;21101;-75
2021/10/04 10:13:15;;;;;;;1.12;1.00;;;14.40;99.90;;;;;;1975503;72;21075;-75
2021/10/04 10:15:45;;;;;;;1.12;0.98;;;14.20;99.90;;;;;;1975527;72;21141;-75
2021/10/04 10:18:09;;;;;;;4.22;2.37;;;14.60;99.90;;;;;;1976282;72;21423;-75
2021/10/04 10:20:35;;;;;;;0.80;0.80;;;14.90;99.90;;;;;;1966907;72;21456;-76
2021/10/04 10:23:03;;;;;;;2.35;1.45;;;15.20;99.90;;;;;;1970922;72;21124;-75
2021/10/04 10:25:30;;;;;;;1.95;1.15;;;15.20;99.90;;;;;;1983868;72;21503;-75
2021/10/04 10:27:56;;;;;;;0.80;0.80;;;15.40;99.90;;;;;;1971163;72;21158;-75
2021/10/04 10:30:23;;;;;;;1.22;0.80;;;15.30;99.90;;;;;;1974313;73;21052;-75
2021/10/04 10:32:49;;;;;;;1.40;0.82;;;15.00;99.90;;;;;;1974532;73;21420;-75
2021/10/04 10:35:15;;;;;;;0.82;0.53;;;15.00;99.90;;;;;;1970615;72;21557;-75
2021/10/04 10:37:41;;;;;;;1.22;0.70;;;15.00;99.90;;;;;;1968781;72;21061;-75
2021/10/04 10:40:07;;;;;;;0.40;0.40;;;15.10;99.90;;;;;;1976050;72;21055;-76
2021/10/04 10:42:35;;;;;;;1.00;0.72;;;15.00;99.90;;;;;;1972378;72;21039;-76
2021/10/04 10:45:04;;;;;;;2.35;0.80;;;15.20;99.90;;;;;;1972593;72;21463;-75
2021/10/04 10:47:28;;;;;;;0.40;0.40;;;15.10;99.90;;;;;;1972186;72;21160;-76
2021/10/04 10:49:54;;;;;;;0.37;0.37;;;15.30;99.90;;;;;;1972384;72;21050;-76
2021/10/04 10:52:21;;;;;;;1.35;0.50;;;15.50;99.90;;;;;;1977260;72;21175;-76
2021/10/04 10:54:47;;;;;;;1.90;0.45;;;15.30;99.90;;;;;;1973699;72;21122;-76
2021/10/04 10:57:14;;;;;;;0.50;0.50;;;15.40;99.90;;;;;;1971135;72;21055;-75
2021/10/04 10:59:40;;;;;;;0.80;0.50;;;15.30;99.90;;;;;;1974255;72;21063;-76
2021/10/04 11:02:06;;;;;;;1.27;0.50;;;15.10;99.90;;;;;;1970854;72;21046;-76
2021/10/04 11:04:32;;;;;;;0.65;0.42;;;15.10;99.90;;;;;;1981310;72;21043;-75
2021/10/04 11:06:58;;;;;;;0.68;0.50;;;15.40;99.90;;;;;;1978484;72;21148;-76
2021/10/04 11:09:24;;;;;;;3.33;0.98;;;15.50;99.90;;;;;;1977392;72;21059;-75
2021/10/04 11:11:50;;;;;;;0.45;0.45;;;15.60;99.90;;;;;;1973711;72;21060;-75
2021/10/04 11:14:16;;;;;;;0.65;0.65;;;15.70;99.90;;;;;;1981317;72;21043;-75
2021/10/04 11:16:43;;;;;;;1.15;0.40;;;15.90;99.90;;;;;;1962107;72;21060;-76
2021/10/04 11:19:09;;;;;;;0.70;0.70;;;16.00;99.90;;;;;;1974120;72;21070;-76
2021/10/04 11:21:35;;;;;;;0.70;0.30;;;15.90;99.90;;;;;;1974589;72;21059;-77
2021/10/04 11:24:01;;;;;;;0.47;0.47;;;15.80;99.90;;;;;;1971035;72;21068;-77
2021/10/04 11:26:27;;;;;;;0.30;0.20;;;16.00;99.90;;;;;;1975670;72;21150;-77
2021/10/04 11:28:53;;;;;;;0.40;0.40;;;15.70;99.90;;;;;;1969122;72;21032;-76
2021/10/04 11:31:20;;;;;;;0.78;0.40;;;15.50;99.90;;;;;;1974482;72;21069;-76
2021/10/04 11:33:46;;;;;;;1.47;0.40;;;15.60;99.90;;;;;;1977014;72;21055;-76
2021/10/04 11:36:12;;;;;;;0.40;0.40;;;15.20;99.90;;;;;;1971522;72;21063;-75
2021/10/04 11:38:38;;;;;;;0.50;0.40;;;15.20;99.90;;;;;;1971261;72;21232;-75
2021/10/04 11:41:04;;;;;;;0.42;0.42;;;15.50;99.90;;;;;;1974291;72;21113;-76
2021/10/04 11:43:34;;;;;;;0.35;0.35;;;15.80;99.90;;;;;;1970568;72;21532;-74
2021/10/04 11:45:58;;;;;;;0.37;0.37;;;15.80;99.90;;;;;;1970757;72;21068;-75
2021/10/04 11:48:24;;;;;;;0.30;0.30;;;16.10;99.90;;;;;;1974731;72;21055;-74
2021/10/04 11:50:50;;;;;;;0.45;0.30;;;15.90;99.90;;;;;;1974940;73;21076;-75
2021/10/04 11:53:16;;;;;;;1.07;0.60;;;15.70;99.90;;;;;;1974690;72;21052;-75
2021/10/04 11:55:42;;;;;;;0.30;0.30;;;15.80;99.90;;;;;;1972434;72;21076;-75
2021/10/04 11:58:09;;;;;;;1.30;0.30;;;16.00;99.90;;;;;;1980426;72;21040;-75
2021/10/04 12:00:35;;;;;;;0.30;0.30;;;15.30;99.90;;;;;;1981046;72;21051;-75
2021/10/04 12:03:01;;;;;;;0.95;0.53;;;15.30;99.90;;;;;;1973616;72;21100;-74
2021/10/04 12:05:31;;;;;;;0.50;0.50;;;15.40;99.90;;;;;;1981800;72;21099;-75
2021/10/04 12:07:57;;;;;;;0.40;0.40;;;15.20;99.90;;;;;;1977507;72;21098;-75
2021/10/04 12:10:23;;;;;;;0.30;0.20;;;15.30;99.90;;;;;;1970368;72;21075;-75
2021/10/04 12:12:49;;;;;;;0.30;0.30;;;15.60;99.90;;;;;;1970795;72;21062;-75
2021/10/04 12:15:15;;;;;;;0.50;0.40;;;15.80;99.90;;;;;;1970903;72;21055;-75
2021/10/04 12:17:42;;;;;;;0.55;0.55;;;15.90;99.90;;;;;;1974325;72;21040;-75
2021/10/04 12:20:08;;;;;;;7.42;0.50;;;16.00;99.90;;;;;;1968249;72;21101;-75
2021/10/04 12:22:34;;;;;;;1.12;0.50;;;16.20;99.90;;;;;;1975394;72;21066;-75
2021/10/04 12:25:00;;;;;;;0.82;0.28;;;16.20;99.90;;;;;;1980822;72;21067;-76
2021/10/04 12:27:26;;;;;;;0.47;0.47;;;15.80;99.90;;;;;;1973914;72;21023;-74
2021/10/04 12:29:53;;;;;;;0.98;0.20;;;15.50;99.90;;;;;;1973341;72;21066;-75
2021/10/04 12:32:19;;;;;;;0.45;0.30;;;15.20;99.90;;;;;;1972836;72;21136;-75
2021/10/04 12:34:47;;;;;;;0.85;0.40;;;15.20;99.90;;;;;;1975978;72;21556;-75
2021/10/04 12:37:13;;;;;;;0.72;0.57;;;15.40;99.90;;;;;;1970221;72;21452;-75
2021/10/04 12:39:39;;;;;;;0.72;0.37;;;15.70;99.90;;;;;;1970767;72;21491;-75
2021/10/04 12:42:05;;;;;;;0.45;0.37;;;16.00;99.90;;;;;;1970460;72;21035;-76